Time;durP1;ratioP1;P1;durP2;ratioP2;P2;SDS_P1;SDS_P2;PMS_P1;PMS_P2;Temp;Humidity;BMP_temperature;BMP_pressure;BME280_temperature;BME280_humidity;BME280_pressure;Samples;Min_cycle;Max_cycle;Signal;HPM_P1;HPM_P2
2023/11/14 00:00:48;;;;;;;5.05;1.67;;;;;;;;;;5023941;28;20061;-75
2023/11/14 00:03:20;;;;;;;2.67;1.50;;;;;;;;;;5023971;28;20065;-75
2023/11/14 00:05:51;;;;;;;2.42;1.58;;;;;;;;;;5024575;28;20045;-76
2023/11/14 00:08:21;;;;;;;3.42;1.50;;;;;;;;;;5023834;28;20512;-75
2023/11/14 00:10:52;;;;;;;3.70;1.60;;;;;;;;;;5022667;28;20056;-76
2023/11/14 00:13:24;;;;;;;5.22;2.50;;;;;;;;;;5021294;28;20508;-76
2023/11/14 00:15:55;;;;;;;4.00;2.00;;;;;;;;;;5023580;28;20053;-74
2023/11/14 00:18:26;;;;;;;4.07;2.28;;;;;;;;;;5022265;28;20053;-75
2023/11/14 00:20:56;;;;;;;3.72;1.77;;;;;;;;;;5023414;28;20504;-75
2023/11/14 00:23:28;;;;;;;4.97;1.95;;;;;;;;;;5023926;28;20056;-75
2023/11/14 00:26:01;;;;;;;3.10;1.80;;;;;;;;;;5027896;28;20056;-76
2023/11/14 00:28:32;;;;;;;9.13;1.92;;;;;;;;;;5025229;28;20046;-74
2023/11/14 00:31:03;;;;;;;3.67;1.83;;;;;;;;;;5026135;28;20069;-78
2023/11/14 00:33:34;;;;;;;4.00;1.60;;;;;;;;;;5023875;28;20136;-76
2023/11/14 00:36:07;;;;;;;2.42;1.67;;;;;;;;;;5030168;28;20057;-78
2023/11/14 00:38:38;;;;;;;7.20;1.70;;;;;;;;;;5025494;28;20536;-76
2023/11/14 00:41:11;;;;;;;2.22;1.70;;;;;;;;;;5027903;28;20041;-74
2023/11/14 00:43:43;;;;;;;2.50;1.60;;;;;;;;;;5031232;28;20037;-77
2023/11/14 00:46:14;;;;;;;6.90;1.98;;;;;;;;;;5026799;28;20065;-76
2023/11/14 00:48:46;;;;;;;4.93;1.63;;;;;;;;;;5023896;28;20080;-75
2023/11/14 00:51:17;;;;;;;6.68;1.63;;;;;;;;;;5023047;28;20061;-75
2023/11/14 00:53:51;;;;;;;4.40;1.70;;;;;;;;;;5021795;28;20601;-74
2023/11/14 00:56:23;;;;;;;3.60;1.73;;;;;;;;;;5023154;28;20065;-76
2023/11/14 00:58:54;;;;;;;5.32;1.80;;;;;;;;;;5023401;28;20508;-74
2023/11/14 01:01:26;;;;;;;2.05;1.73;;;;;;;;;;5024607;28;20050;-78
2023/11/14 01:03:56;;;;;;;6.22;2.03;;;;;;;;;;5034155;28;20049;-73
2023/11/14 01:06:27;;;;;;;1.95;1.30;;;;;;;;;;5045416;28;20061;-76
2023/11/14 01:09:00;;;;;;;6.15;2.13;;;;;;;;;;5044564;28;20064;-76
2023/11/14 01:11:31;;;;;;;9.57;1.80;;;;;;;;;;5043936;28;20041;-74
2023/11/14 01:14:01;;;;;;;3.30;1.92;;;;;;;;;;5043899;28;20045;-75
2023/11/14 01:16:32;;;;;;;3.65;1.70;;;;;;;;;;5045224;28;20055;-76
2023/11/14 01:19:02;;;;;;;2.10;1.60;;;;;;;;;;5045164;28;20538;-72
2023/11/14 01:21:32;;;;;;;5.68;1.90;;;;;;;;;;5044876;28;20045;-73
2023/11/14 01:24:03;;;;;;;2.42;1.73;;;;;;;;;;5043776;28;20041;-73
2023/11/14 01:26:35;;;;;;;7.03;1.95;;;;;;;;;;5043743;28;20057;-77
2023/11/14 01:29:05;;;;;;;5.07;1.92;;;;;;;;;;5047720;28;20586;-77
2023/11/14 01:31:36;;;;;;;4.22;2.00;;;;;;;;;;5043510;28;20060;-75
2023/11/14 01:34:06;;;;;;;7.22;2.00;;;;;;;;;;5044620;28;20053;-74
2023/11/14 01:36:38;;;;;;;5.03;2.10;;;;;;;;;;5042450;28;20049;-74
2023/11/14 01:39:10;;;;;;;1.90;1.55;;;;;;;;;;5041993;28;20527;-75
2023/11/14 01:41:40;;;;;;;3.33;2.47;;;;;;;;;;5045046;28;20702;-77
2023/11/14 01:44:10;;;;;;;4.10;2.00;;;;;;;;;;5043640;28;20049;-75
2023/11/14 01:46:41;;;;;;;6.80;1.88;;;;;;;;;;5041457;28;20053;-76
2023/11/14 01:49:13;;;;;;;5.03;2.03;;;;;;;;;;5042384;28;20529;-75
2023/11/14 01:51:44;;;;;;;5.60;1.83;;;;;;;;;;5045127;28;20064;-72
2023/11/14 01:54:16;;;;;;;4.85;2.05;;;;;;;;;;5048081;28;20490;-76
2023/11/14 01:56:47;;;;;;;3.90;2.05;;;;;;;;;;5043250;28;20049;-74
2023/11/14 01:59:19;;;;;;;3.47;2.03;;;;;;;;;;5043896;28;20055;-76
2023/11/14 02:01:50;;;;;;;4.60;2.20;;;;;;;;;;5044798;28;20056;-75
2023/11/14 02:04:21;;;;;;;4.63;2.20;;;;;;;;;;5041549;28;20060;-75
2023/11/14 02:06:54;;;;;;;10.80;2.22;;;;;;;;;;5042804;28;20056;-77
2023/11/14 02:09:40;;;;;;;4.78;1.95;;;;;;;;;;5038695;28;20049;-76
2023/11/14 02:12:23;;;;;;;5.65;2.15;;;;;;;;;;5028369;28;20500;-76
2023/11/14 02:14:59;;;;;;;3.95;2.53;;;;;;;;;;5041277;28;20418;-78
2023/11/14 02:17:31;;;;;;;7.75;2.00;;;;;;;;;;5041880;28;20515;-73
2023/11/14 02:20:05;;;;;;;4.18;2.63;;;;;;;;;;5042593;28;20049;-76
2023/11/14 02:22:35;;;;;;;5.57;2.05;;;;;;;;;;5042801;28;20183;-76
2023/11/14 02:25:07;;;;;;;5.80;2.00;;;;;;;;;;5040890;28;20346;-75
2023/11/14 02:27:38;;;;;;;8.63;2.50;;;;;;;;;;5045386;28;20056;-72
2023/11/14 02:30:08;;;;;;;10.10;2.47;;;;;;;;;;5047183;28;20064;-75
2023/11/14 02:32:40;;;;;;;6.53;2.30;;;;;;;;;;5047307;28;20037;-74
2023/11/14 02:35:10;;;;;;;3.58;1.92;;;;;;;;;;5046486;28;20053;-74
2023/11/14 02:37:41;;;;;;;4.43;2.15;;;;;;;;;;5045104;28;20061;-76
2023/11/14 02:40:13;;;;;;;4.60;2.35;;;;;;;;;;5046144;28;20056;-73
2023/11/14 02:42:44;;;;;;;7.00;2.33;;;;;;;;;;5046024;28;20063;-73
2023/11/14 02:45:15;;;;;;;7.15;2.50;;;;;;;;;;5044630;28;20064;-80
2023/11/14 02:47:45;;;;;;;3.15;2.30;;;;;;;;;;5045816;28;20053;-79
2023/11/14 02:50:36;;;;;;;5.90;2.33;;;;;;;;;;5045429;28;20049;-78
2023/11/14 02:53:08;;;;;;;3.60;2.30;;;;;;;;;;5046458;28;20049;-74
2023/11/14 02:55:43;;;;;;;3.97;2.60;;;;;;;;;;5045938;28;20045;-78
2023/11/14 02:58:14;;;;;;;4.18;2.72;;;;;;;;;;5046108;28;20057;-77
2023/11/14 03:00:47;;;;;;;13.82;3.10;;;;;;;;;;5045831;28;20048;-75
2023/11/14 03:03:19;;;;;;;6.55;2.35;;;;;;;;;;5043828;28;20057;-77
2023/11/14 03:05:50;;;;;;;6.78;2.70;;;;;;;;;;5044078;28;20057;-75
2023/11/14 03:08:22;;;;;;;3.55;2.33;;;;;;;;;;5044027;28;20055;-77
2023/11/14 03:10:53;;;;;;;5.78;3.08;;;;;;;;;;5045181;28;20045;-76
2023/11/14 03:13:24;;;;;;;8.18;2.72;;;;;;;;;;5046569;28;20055;-75
2023/11/14 03:15:55;;;;;;;6.00;2.65;;;;;;;;;;5044219;28;20049;-75
2023/11/14 03:18:25;;;;;;;6.20;2.38;;;;;;;;;;5045772;28;20057;-73
2023/11/14 03:20:56;;;;;;;4.45;2.63;;;;;;;;;;5043511;28;20053;-77
2023/11/14 03:23:26;;;;;;;7.78;2.65;;;;;;;;;;5044515;28;20557;-76
2023/11/14 03:25:56;;;;;;;4.72;2.38;;;;;;;;;;5045063;28;20056;-76
2023/11/14 03:28:27;;;;;;;4.63;2.97;;;;;;;;;;5044687;28;20411;-75
2023/11/14 03:30:59;;;;;;;4.25;2.40;;;;;;;;;;5043035;28;20056;-75
2023/11/14 03:33:30;;;;;;;8.13;2.55;;;;;;;;;;5045287;28;20048;-75
2023/11/14 03:36:00;;;;;;;7.00;2.83;;;;;;;;;;5044345;28;20048;-75
2023/11/14 03:38:31;;;;;;;6.70;2.60;;;;;;;;;;5043499;28;20048;-76
2023/11/14 03:41:00;;;;;;;5.38;2.53;;;;;;;;;;5044829;28;20048;-75
2023/11/14 03:43:32;;;;;;;5.85;2.08;;;;;;;;;;5043313;28;20053;-78
2023/11/14 03:46:03;;;;;;;5.57;2.42;;;;;;;;;;5044690;28;20079;-79
2023/11/14 03:48:33;;;;;;;6.28;2.30;;;;;;;;;;5045033;28;20060;-76
2023/11/14 03:51:09;;;;;;;9.88;2.60;;;;;;;;;;5045220;28;20053;-76
2023/11/14 03:53:40;;;;;;;5.80;2.15;;;;;;;;;;5044241;28;20545;-77
2023/11/14 03:56:10;;;;;;;6.30;2.65;;;;;;;;;;5044348;28;20052;-73
2023/11/14 03:58:44;;;;;;;3.35;2.30;;;;;;;;;;5042859;28;20053;-75
2023/11/14 04:01:15;;;;;;;5.78;2.80;;;;;;;;;;5044527;28;20056;-73
2023/11/14 04:03:45;;;;;;;3.85;2.22;;;;;;;;;;5042735;28;20530;-75
2023/11/14 04:06:16;;;;;;;5.53;2.28;;;;;;;;;;5042983;28;20044;-76
2023/11/14 04:08:46;;;;;;;7.90;2.30;;;;;;;;;;5042751;28;20547;-73
2023/11/14 04:11:16;;;;;;;6.43;2.70;;;;;;;;;;5044542;28;20053;-75
2023/11/14 04:13:47;;;;;;;4.97;3.10;;;;;;;;;;5044738;28;20052;-77
2023/11/14 04:16:19;;;;;;;5.18;2.72;;;;;;;;;;5044076;28;20060;-75
2023/11/14 04:18:50;;;;;;;7.63;2.90;;;;;;;;;;5044213;28;20060;-77
2023/11/14 04:21:21;;;;;;;8.63;2.53;;;;;;;;;;5042150;28;20059;-77
2023/11/14 04:23:51;;;;;;;6.60;3.33;;;;;;;;;;5042548;28;20056;-77
2023/11/14 04:26:22;;;;;;;7.60;2.60;;;;;;;;;;5043774;28;20052;-77
2023/11/14 04:28:53;;;;;;;5.35;3.22;;;;;;;;;;5044637;28;20048;-78
2023/11/14 04:31:24;;;;;;;11.27;3.50;;;;;;;;;;5043478;28;20052;-77
2023/11/14 04:33:55;;;;;;;6.07;3.42;;;;;;;;;;5043614;28;20056;-77
2023/11/14 04:36:24;;;;;;;7.63;2.97;;;;;;;;;;5043855;28;20064;-75
2023/11/14 04:38:57;;;;;;;7.43;2.88;;;;;;;;;;5043727;28;20052;-77
2023/11/14 04:41:27;;;;;;;8.35;3.20;;;;;;;;;;5041674;28;20057;-76
2023/11/14 04:43:58;;;;;;;8.85;3.50;;;;;;;;;;5042963;28;20550;-74
2023/11/14 04:46:28;;;;;;;9.50;3.55;;;;;;;;;;5043389;28;20412;-77
2023/11/14 04:48:59;;;;;;;5.30;3.17;;;;;;;;;;5044193;28;20056;-78
2023/11/14 04:51:30;;;;;;;8.55;3.22;;;;;;;;;;5042606;28;20067;-77
2023/11/14 04:54:00;;;;;;;11.80;3.47;;;;;;;;;;5043470;28;20531;-78
2023/11/14 04:56:30;;;;;;;4.60;3.28;;;;;;;;;;5041553;28;20056;-75
2023/11/14 04:59:02;;;;;;;8.18;3.60;;;;;;;;;;5043166;28;20080;-76
2023/11/14 05:01:32;;;;;;;8.68;3.33;;;;;;;;;;5043036;28;20056;-74
2023/11/14 05:04:03;;;;;;;6.93;3.67;;;;;;;;;;5042544;28;20053;-77
2023/11/14 05:06:34;;;;;;;7.95;4.07;;;;;;;;;;5042654;28;20055;-76
2023/11/14 05:09:04;;;;;;;5.30;3.67;;;;;;;;;;5043004;28;20631;-74
2023/11/14 05:11:38;;;;;;;12.35;3.60;;;;;;;;;;5043212;28;20504;-79
2023/11/14 05:14:09;;;;;;;9.82;5.55;;;;;;;;;;5042254;28;20408;-76
2023/11/14 05:16:41;;;;;;;5.00;2.75;;;;;;;;;;5042803;28;20064;-76
2023/11/14 05:19:11;;;;;;;4.32;3.05;;;;;;;;;;5043128;28;20053;-74
2023/11/14 05:21:41;;;;;;;7.20;4.78;;;;;;;;;;5042397;28;20040;-75
2023/11/14 05:24:14;;;;;;;9.45;5.60;;;;;;;;;;5042324;28;20075;-75
2023/11/14 05:26:45;;;;;;;10.82;5.82;;;;;;;;;;5042845;28;20049;-76
2023/11/14 05:29:16;;;;;;;10.15;6.15;;;;;;;;;;5042633;28;20041;-79
2023/11/14 05:31:48;;;;;;;9.50;5.78;;;;;;;;;;5042386;28;20048;-76
2023/11/14 05:34:18;;;;;;;11.55;5.22;;;;;;;;;;5043053;28;20045;-75
2023/11/14 05:36:48;;;;;;;10.98;4.97;;;;;;;;;;5042589;28;20053;-74
2023/11/14 05:39:20;;;;;;;11.45;5.60;;;;;;;;;;5042763;28;20045;-80
2023/11/14 05:41:50;;;;;;;10.23;5.45;;;;;;;;;;5041512;28;20052;-76
2023/11/14 05:44:22;;;;;;;11.65;5.82;;;;;;;;;;5042226;28;20068;-75
2023/11/14 05:46:52;;;;;;;8.45;4.80;;;;;;;;;;5042662;28;20045;-76
2023/11/14 05:49:23;;;;;;;11.82;4.63;;;;;;;;;;5041858;28;20060;-76
2023/11/14 05:51:53;;;;;;;8.98;5.93;;;;;;;;;;5042050;28;20427;-75
2023/11/14 05:54:24;;;;;;;9.25;5.63;;;;;;;;;;5042355;28;20515;-76
2023/11/14 05:56:54;;;;;;;11.55;5.45;;;;;;;;;;5042061;28;20052;-76
2023/11/14 05:59:24;;;;;;;8.68;4.85;;;;;;;;;;5042526;28;20053;-76
2023/11/14 06:01:55;;;;;;;9.77;5.32;;;;;;;;;;5041395;28;20049;-77
2023/11/14 06:04:26;;;;;;;13.80;5.32;;;;;;;;;;5041164;28;20057;-76
2023/11/14 06:07:00;;;;;;;8.85;4.93;;;;;;;;;;5041643;28;20041;-77
2023/11/14 06:09:31;;;;;;;10.98;4.97;;;;;;;;;;5040796;28;20049;-77
2023/11/14 06:12:00;;;;;;;9.93;4.72;;;;;;;;;;5042111;28;20045;-77
2023/11/14 06:14:30;;;;;;;7.45;4.38;;;;;;;;;;5042237;28;20049;-78
2023/11/14 06:17:01;;;;;;;10.00;5.50;;;;;;;;;;5042739;28;20049;-75
2023/11/14 06:19:33;;;;;;;8.35;4.25;;;;;;;;;;5041958;28;20049;-76
2023/11/14 06:22:03;;;;;;;8.75;5.22;;;;;;;;;;5041471;28;20045;-74
2023/11/14 06:24:33;;;;;;;11.95;5.78;;;;;;;;;;5041187;28;20053;-75
2023/11/14 06:27:03;;;;;;;10.40;5.68;;;;;;;;;;5041559;28;20538;-73
2023/11/14 06:29:34;;;;;;;18.58;5.88;;;;;;;;;;5042127;28;20053;-75
2023/11/14 06:32:05;;;;;;;9.95;6.03;;;;;;;;;;5042138;28;20045;-75
2023/11/14 06:34:35;;;;;;;10.82;6.60;;;;;;;;;;5041417;28;20049;-75
2023/11/14 06:37:06;;;;;;;19.08;6.25;;;;;;;;;;5040045;28;20057;-78
2023/11/14 06:39:38;;;;;;;12.48;5.65;;;;;;;;;;5041573;28;20049;-77
2023/11/14 06:42:09;;;;;;;9.10;5.97;;;;;;;;;;5041720;28;20053;-78
2023/11/14 06:44:44;;;;;;;9.98;5.47;;;;;;;;;;5041949;28;20084;-77
2023/11/14 06:47:15;;;;;;;12.25;5.65;;;;;;;;;;5042065;28;20045;-75
2023/11/14 06:49:46;;;;;;;10.23;5.03;;;;;;;;;;5042322;28;20045;-76
2023/11/14 06:52:17;;;;;;;12.20;5.03;;;;;;;;;;5041722;28;20041;-75
2023/11/14 06:54:47;;;;;;;9.07;5.00;;;;;;;;;;5042415;28;20045;-75
2023/11/14 06:57:17;;;;;;;11.23;5.30;;;;;;;;;;5041303;28;20041;-76
2023/11/14 06:59:47;;;;;;;18.75;5.50;;;;;;;;;;5042018;28;20060;-74
2023/11/14 07:02:18;;;;;;;12.85;5.68;;;;;;;;;;5041366;28;20048;-76
2023/11/14 07:04:48;;;;;;;12.02;4.53;;;;;;;;;;5041747;28;20526;-75
2023/11/14 07:07:19;;;;;;;10.32;5.25;;;;;;;;;;5041208;28;20880;-77
2023/11/14 07:09:49;;;;;;;10.60;4.65;;;;;;;;;;5039736;28;20049;-74
2023/11/14 07:12:20;;;;;;;9.05;4.20;;;;;;;;;;5041243;28;20053;-78
2023/11/14 07:14:51;;;;;;;13.40;4.72;;;;;;;;;;5044628;28;20049;-78
2023/11/14 07:17:22;;;;;;;10.68;4.93;;;;;;;;;;5043969;28;20053;-75
2023/11/14 07:19:54;;;;;;;7.53;4.93;;;;;;;;;;5045185;28;20048;-75
2023/11/14 07:22:25;;;;;;;6.72;4.60;;;;;;;;;;5045215;28;20053;-74
2023/11/14 07:24:56;;;;;;;7.80;4.60;;;;;;;;;;5044358;28;20048;-77
2023/11/14 07:27:26;;;;;;;10.40;4.68;;;;;;;;;;5045058;28;20045;-75
2023/11/14 07:29:56;;;;;;;8.00;4.30;;;;;;;;;;5045558;28;20045;-76
2023/11/14 07:32:26;;;;;;;12.23;4.53;;;;;;;;;;5044902;28;20053;-78
2023/11/14 07:34:58;;;;;;;7.55;5.07;;;;;;;;;;5044422;28;20407;-79
2023/11/14 07:37:28;;;;;;;6.25;3.92;;;;;;;;;;5044381;28;20065;-78
2023/11/14 07:39:59;;;;;;;6.32;4.22;;;;;;;;;;5044538;28;20041;-78
2023/11/14 07:42:30;;;;;;;9.85;4.00;;;;;;;;;;5044142;28;20053;-75
2023/11/14 07:45:02;;;;;;;9.40;4.32;;;;;;;;;;5044704;28;20045;-76
2023/11/14 07:47:33;;;;;;;9.50;4.13;;;;;;;;;;5044197;28;20045;-75
2023/11/14 07:50:05;;;;;;;8.48;3.80;;;;;;;;;;5044197;28;20056;-76
2023/11/14 07:52:35;;;;;;;9.48;4.75;;;;;;;;;;5044459;28;20049;-74
2023/11/14 07:55:08;;;;;;;8.80;4.22;;;;;;;;;;5042967;28;20048;-77
2023/11/14 07:57:39;;;;;;;7.13;4.13;;;;;;;;;;5044283;28;20049;-76
2023/11/14 08:00:12;;;;;;;12.43;4.45;;;;;;;;;;5042667;28;20064;-76
2023/11/14 08:02:43;;;;;;;6.90;4.93;;;;;;;;;;5043974;28;20051;-76
2023/11/14 08:05:14;;;;;;;8.90;5.20;;;;;;;;;;5044083;28;20060;-74
2023/11/14 08:07:45;;;;;;;7.28;4.80;;;;;;;;;;5044878;28;20052;-74
2023/11/14 08:10:16;;;;;;;11.60;4.32;;;;;;;;;;5045091;28;20052;-79
2023/11/14 08:12:47;;;;;;;10.27;4.63;;;;;;;;;;5044387;28;20064;-76
2023/11/14 08:15:18;;;;;;;10.95;4.60;;;;;;;;;;5043760;28;20844;-75
2023/11/14 08:17:50;;;;;;;8.13;4.55;;;;;;;;;;5043446;28;20051;-78
2023/11/14 08:20:20;;;;;;;7.03;3.90;;;;;;;;;;5043675;28;20052;-76
2023/11/14 08:22:51;;;;;;;7.60;4.60;;;;;;;;;;5043714;28;20431;-75
2023/11/14 08:25:23;;;;;;;7.13;4.72;;;;;;;;;;5043089;28;20419;-76
2023/11/14 08:27:55;;;;;;;6.80;4.25;;;;;;;;;;5042969;28;20057;-73
2023/11/14 08:30:28;;;;;;;10.93;4.30;;;;;;;;;;5042150;28;20060;-75
2023/11/14 08:32:58;;;;;;;8.05;4.38;;;;;;;;;;5041715;28;20064;-76
2023/11/14 08:35:28;;;;;;;7.20;4.03;;;;;;;;;;5043289;28;20052;-79
2023/11/14 08:38:00;;;;;;;8.02;4.05;;;;;;;;;;5043396;28;20103;-74
2023/11/14 08:40:44;;;;;;;10.35;4.50;;;;;;;;;;5044190;28;20056;-77
2023/11/14 08:43:15;;;;;;;12.45;3.55;;;;;;;;;;5044528;28;20048;-74
2023/11/14 08:45:46;;;;;;;12.15;4.03;;;;;;;;;;5043480;28;21068;-74
2023/11/14 08:48:18;;;;;;;8.70;4.03;;;;;;;;;;5043099;28;20045;-75
2023/11/14 08:50:48;;;;;;;10.02;4.28;;;;;;;;;;5043562;28;20052;-77
2023/11/14 08:53:23;;;;;;;6.22;4.25;;;;;;;;;;5043500;28;20049;-75
2023/11/14 08:55:55;;;;;;;10.05;4.25;;;;;;;;;;5043093;28;20052;-76
2023/11/14 08:58:26;;;;;;;9.40;4.13;;;;;;;;;;5043444;28;20048;-79
2023/11/14 09:00:58;;;;;;;9.27;4.60;;;;;;;;;;5042866;28;20053;-76
2023/11/14 09:03:29;;;;;;;5.72;3.83;;;;;;;;;;5042993;28;20542;-76
2023/11/14 09:06:00;;;;;;;11.02;3.88;;;;;;;;;;5042450;28;20558;-77
2023/11/14 09:08:32;;;;;;;13.18;4.82;;;;;;;;;;5043040;28;20049;-77
2023/11/14 09:11:04;;;;;;;11.18;4.70;;;;;;;;;;5043208;28;20067;-76
2023/11/14 09:13:34;;;;;;;9.38;4.78;;;;;;;;;;5042739;28;20055;-77
2023/11/14 09:16:09;;;;;;;17.95;5.03;;;;;;;;;;5042567;28;20507;-76
2023/11/14 09:18:40;;;;;;;8.88;5.20;;;;;;;;;;5043029;28;20052;-74
2023/11/14 09:21:10;;;;;;;9.77;5.13;;;;;;;;;;5042731;28;20041;-76
2023/11/14 09:23:40;;;;;;;6.70;5.00;;;;;;;;;;5042927;28;20067;-74
2023/11/14 09:26:11;;;;;;;10.07;5.75;;;;;;;;;;5042452;28;20055;-77
2023/11/14 09:28:43;;;;;;;15.20;6.10;;;;;;;;;;5042761;28;20055;-77
2023/11/14 09:31:14;;;;;;;12.23;6.18;;;;;;;;;;5042436;28;20052;-75
2023/11/14 09:33:46;;;;;;;12.27;5.85;;;;;;;;;;5042589;28;20045;-75
2023/11/14 09:36:18;;;;;;;11.38;5.88;;;;;;;;;;5041079;28;20500;-76
2023/11/14 09:38:47;;;;;;;15.85;6.22;;;;;;;;;;5041920;28;20518;-76
2023/11/14 09:41:19;;;;;;;10.98;6.38;;;;;;;;;;5042583;28;20667;-75
2023/11/14 09:43:49;;;;;;;11.00;5.88;;;;;;;;;;5041976;28;20053;-77
2023/11/14 09:46:19;;;;;;;10.30;5.85;;;;;;;;;;5041909;28;20678;-75
2023/11/14 09:48:50;;;;;;;11.07;5.68;;;;;;;;;;5042229;28;20056;-79
2023/11/14 09:51:20;;;;;;;9.13;5.72;;;;;;;;;;5042542;28;20052;-75
2023/11/14 09:53:52;;;;;;;13.50;7.28;;;;;;;;;;5042655;28;20056;-76
2023/11/14 09:56:23;;;;;;;10.23;6.75;;;;;;;;;;5042035;28;20056;-78
2023/11/14 09:58:56;;;;;;;12.38;6.85;;;;;;;;;;5040653;28;20045;-77
2023/11/14 10:01:26;;;;;;;20.67;6.70;;;;;;;;;;5042082;28;20049;-73
2023/11/14 10:03:58;;;;;;;20.17;6.95;;;;;;;;;;5042718;28;20045;-78
2023/11/14 10:06:28;;;;;;;10.07;5.65;;;;;;;;;;5041814;28;20048;-77
2023/11/14 10:08:59;;;;;;;12.02;5.57;;;;;;;;;;5041940;28;20115;-76
2023/11/14 10:11:48;;;;;;;14.13;5.65;;;;;;;;;;5041968;28;20496;-72
2023/11/14 10:14:21;;;;;;;6.78;4.90;;;;;;;;;;5041617;28;20519;-78
2023/11/14 10:16:59;;;;;;;9.75;4.90;;;;;;;;;;5042021;28;20053;-78
2023/11/14 10:19:29;;;;;;;9.18;4.80;;;;;;;;;;5024086;28;20053;-77
2023/11/14 10:22:07;;;;;;;10.73;5.95;;;;;;;;;;5040659;28;20056;-76
2023/11/14 10:24:38;;;;;;;8.05;5.70;;;;;;;;;;5041719;28;20056;-83
2023/11/14 10:27:08;;;;;;;19.70;6.57;;;;;;;;;;5040574;28;20060;-77
2023/11/14 10:29:52;;;;;;;24.25;7.13;;;;;;;;;;5042088;28;20055;-74
2023/11/14 10:32:24;;;;;;;11.18;5.35;;;;;;;;;;5042281;28;20048;-79
2023/11/14 10:34:54;;;;;;;11.27;5.72;;;;;;;;;;5041986;28;20056;-76
2023/11/14 10:37:33;;;;;;;13.20;6.03;;;;;;;;;;5041136;28;20526;-78
2023/11/14 10:40:06;;;;;;;13.00;5.88;;;;;;;;;;5043015;28;20053;-81
2023/11/14 10:42:38;;;;;;;8.70;4.88;;;;;;;;;;5041789;28;20540;-79
2023/11/14 10:45:11;;;;;;;5.95;4.47;;;;;;;;;;5040923;28;20045;-79
2023/11/14 10:47:44;;;;;;;6.38;4.32;;;;;;;;;;5042425;28;20566;-75
2023/11/14 10:50:30;;;;;;;9.00;3.65;;;;;;;;;;5045271;28;20049;-79
2023/11/14 10:53:02;;;;;;;21.88;5.45;;;;;;;;;;5045285;28;20048;-78
2023/11/14 10:55:33;;;;;;;12.13;5.20;;;;;;;;;;5045605;28;20044;-75
2023/11/14 10:58:07;;;;;;;10.02;5.15;;;;;;;;;;5045225;28;20601;-75
2023/11/14 11:00:38;;;;;;;17.13;5.72;;;;;;;;;;5043681;28;20056;-75
2023/11/14 11:03:09;;;;;;;7.20;4.93;;;;;;;;;;5045017;28;20052;-76
2023/11/14 11:05:40;;;;;;;7.38;5.20;;;;;;;;;;5044847;28;20048;-75
2023/11/14 11:08:13;;;;;;;8.63;4.72;;;;;;;;;;5045461;28;20837;-76
2023/11/14 11:10:44;;;;;;;9.02;4.00;;;;;;;;;;5045871;28;20049;-76
2023/11/14 11:13:21;;;;;;;8.52;4.53;;;;;;;;;;5045362;28;20060;-79
2023/11/14 11:15:56;;;;;;;12.88;4.57;;;;;;;;;;5046026;28;20056;-80
2023/11/14 11:18:35;;;;;;;7.45;3.80;;;;;;;;;;5045352;28;20049;-76
2023/11/14 11:21:14;;;;;;;5.80;4.07;;;;;;;;;;5044517;28;20049;-76
2023/11/14 11:24:12;;;;;;;10.50;4.85;;;;;;;;;;5043531;28;20060;-77
2023/11/14 11:27:11;;;;;;;12.05;4.47;;;;;;;;;;5045240;28;20044;-80
2023/11/14 11:29:52;;;;;;;7.32;4.00;;;;;;;;;;5044936;28;20500;-76
2023/11/14 11:32:30;;;;;;;10.15;4.13;;;;;;;;;;5044815;28;20049;-78
2023/11/14 11:35:19;;;;;;;7.47;3.75;;;;;;;;;;5043814;28;20056;-78
2023/11/14 11:38:08;;;;;;;9.93;4.72;;;;;;;;;;5045245;28;20431;-81
2023/11/14 11:41:07;;;;;;;5.80;3.05;;;;;;;;;;5044769;28;20049;-77
2023/11/14 11:43:47;;;;;;;8.55;3.83;;;;;;;;;;5045713;28;20514;-79
2023/11/14 11:46:40;;;;;;;5.55;3.60;;;;;;;;;;5047414;28;20064;-75
2023/11/14 11:49:16;;;;;;;8.68;3.13;;;;;;;;;;5043078;28;20049;-78
2023/11/14 11:51:47;;;;;;;;;;;;;;;;;;5044510;28;20539;-78
2023/11/14 11:54:31;;;;;;;5.95;3.13;;;;;;;;;;5044318;28;19927;-75
2023/11/14 11:57:11;;;;;;;4.20;3.30;;;;;;;;;;5042566;28;20060;-76
2023/11/14 11:59:47;;;;;;;7.10;3.20;;;;;;;;;;5043767;28;20052;-78
2023/11/14 12:02:23;;;;;;;3.97;2.80;;;;;;;;;;5043606;28;20107;-76
2023/11/14 12:04:56;;;;;;;6.53;3.92;;;;;;;;;;5044487;28;20411;-75
2023/11/14 12:07:30;;;;;;;7.88;4.07;;;;;;;;;;5044121;28;20451;-78
2023/11/14 12:10:00;;;;;;;7.88;3.50;;;;;;;;;;5044223;28;20041;-75
2023/11/14 12:12:37;;;;;;;10.30;3.97;;;;;;;;;;5043752;28;20397;-76
2023/11/14 12:15:12;;;;;;;9.93;3.97;;;;;;;;;;5043864;28;20053;-76
2023/11/14 12:18:09;;;;;;;5.00;3.38;;;;;;;;;;5044171;28;20052;-77
2023/11/14 12:20:41;;;;;;;5.03;3.15;;;;;;;;;;5043263;28;20049;-78
2023/11/14 12:23:11;;;;;;;9.15;3.50;;;;;;;;;;5043590;28;20514;-77
2023/11/14 12:25:41;;;;;;;7.28;4.25;;;;;;;;;;5043654;28;20049;-74
2023/11/14 12:28:11;;;;;;;7.30;3.88;;;;;;;;;;5043718;28;21056;-76
2023/11/14 12:31:00;;;;;;;7.85;4.03;;;;;;;;;;5044216;28;20045;-75
2023/11/14 12:33:52;;;;;;;5.32;3.25;;;;;;;;;;5043664;28;20044;-79
2023/11/14 12:36:29;;;;;;;4.28;3.50;;;;;;;;;;5044380;28;20543;-75
2023/11/14 12:39:16;;;;;;;4.68;3.47;;;;;;;;;;5043028;28;20053;-78
2023/11/14 12:41:47;;;;;;;5.88;3.10;;;;;;;;;;5042916;28;20512;-80
2023/11/14 12:44:18;;;;;;;4.75;3.17;;;;;;;;;;5042990;28;20048;-79
2023/11/14 12:46:54;;;;;;;7.95;4.30;;;;;;;;;;5043222;28;20063;-79
2023/11/14 12:49:27;;;;;;;5.75;3.33;;;;;;;;;;5043330;28;20048;-76
2023/11/14 12:52:02;;;;;;;9.15;4.30;;;;;;;;;;5042942;28;20495;-79
2023/11/14 12:54:32;;;;;;;5.10;3.50;;;;;;;;;;5043094;28;20049;-76
2023/11/14 12:57:03;;;;;;;9.27;5.05;;;;;;;;;;5043294;28;20055;-76
2023/11/14 12:59:33;;;;;;;6.28;3.95;;;;;;;;;;5041393;28;20539;-76
2023/11/14 13:02:03;;;;;;;7.07;3.60;;;;;;;;;;5043269;28;20522;-81
2023/11/14 13:04:35;;;;;;;8.23;3.78;;;;;;;;;;5044005;28;20053;-79
2023/11/14 13:07:06;;;;;;;4.82;3.63;;;;;;;;;;5042614;28;20048;-77
2023/11/14 13:09:38;;;;;;;6.65;4.05;;;;;;;;;;5042600;28;20407;-79
2023/11/14 13:12:11;;;;;;;5.05;3.63;;;;;;;;;;5042449;28;20534;-77
2023/11/14 13:14:42;;;;;;;5.78;3.22;;;;;;;;;;5041996;28;20052;-76
2023/11/14 13:17:13;;;;;;;9.48;3.75;;;;;;;;;;5042349;28;20049;-76
2023/11/14 13:19:44;;;;;;;6.45;3.42;;;;;;;;;;5040746;28;20505;-74
2023/11/14 13:22:15;;;;;;;5.00;3.60;;;;;;;;;;5042056;28;20048;-77
2023/11/14 13:24:56;;;;;;;7.13;4.40;;;;;;;;;;5042509;28;20515;-77
2023/11/14 13:27:31;;;;;;;5.13;3.80;;;;;;;;;;5042836;28;20411;-75
2023/11/14 13:30:00;;;;;;;7.55;4.38;;;;;;;;;;5042685;28;20434;-77
2023/11/14 13:32:33;;;;;;;6.57;3.63;;;;;;;;;;5042940;28;20056;-75
2023/11/14 13:35:04;;;;;;;6.00;3.53;;;;;;;;;;5043069;28;20064;-76
2023/11/14 13:37:36;;;;;;;6.35;3.75;;;;;;;;;;5042867;28;20060;-76
2023/11/14 13:40:11;;;;;;;7.55;4.40;;;;;;;;;;5042555;28;20408;-75
2023/11/14 13:42:41;;;;;;;6.03;4.28;;;;;;;;;;5042567;28;20404;-74
2023/11/14 13:45:12;;;;;;;5.82;3.30;;;;;;;;;;5041252;28;20049;-77
2023/11/14 13:47:43;;;;;;;8.02;3.53;;;;;;;;;;5041506;28;20064;-76
2023/11/14 13:50:14;;;;;;;6.88;3.92;;;;;;;;;;5042760;28;20072;-76
2023/11/14 13:52:46;;;;;;;8.18;3.92;;;;;;;;;;5042097;28;20416;-80
2023/11/14 13:55:18;;;;;;;7.65;3.75;;;;;;;;;;5042030;28;20504;-76
2023/11/14 13:57:49;;;;;;;4.95;3.35;;;;;;;;;;5041665;28;20049;-74
2023/11/14 14:00:21;;;;;;;10.45;4.80;;;;;;;;;;5041894;28;20751;-76
2023/11/14 14:02:51;;;;;;;7.43;4.13;;;;;;;;;;5042559;28;20431;-78
2023/11/14 14:05:22;;;;;;;6.60;3.40;;;;;;;;;;5042417;28;20044;-78
2023/11/14 14:07:52;;;;;;;5.78;3.10;;;;;;;;;;5024701;28;20048;-78
2023/11/14 14:10:23;;;;;;;6.38;3.17;;;;;;;;;;5042307;28;20037;-76
2023/11/14 14:12:54;;;;;;;10.02;3.20;;;;;;;;;;5041540;28;20045;-77
2023/11/14 14:15:24;;;;;;;5.78;3.53;;;;;;;;;;5040660;28;20626;-76
2023/11/14 14:17:55;;;;;;;9.25;3.63;;;;;;;;;;5041952;28;20048;-79
2023/11/14 14:20:26;;;;;;;7.88;3.70;;;;;;;;;;5041868;28;20064;-75
2023/11/14 14:22:56;;;;;;;5.85;3.40;;;;;;;;;;5043277;28;20057;-74
2023/11/14 14:25:27;;;;;;;5.10;3.40;;;;;;;;;;5046049;28;20491;-76
2023/11/14 14:27:58;;;;;;;5.18;4.43;;;;;;;;;;5045115;28;20060;-77
2023/11/14 14:30:29;;;;;;;5.60;3.88;;;;;;;;;;5045883;28;20056;-78
2023/11/14 14:32:59;;;;;;;6.93;4.00;;;;;;;;;;5046044;28;20507;-80
2023/11/14 14:35:29;;;;;;;5.63;4.22;;;;;;;;;;5045414;28;20068;-79
2023/11/14 14:38:00;;;;;;;6.97;3.78;;;;;;;;;;5045686;28;21091;-78
2023/11/14 14:40:31;;;;;;;7.03;4.22;;;;;;;;;;5046197;28;20044;-76
2023/11/14 14:43:02;;;;;;;5.13;3.88;;;;;;;;;;5045359;28;20052;-79
2023/11/14 14:45:33;;;;;;;4.68;3.53;;;;;;;;;;5045854;28;20049;-77
2023/11/14 14:48:03;;;;;;;6.47;3.80;;;;;;;;;;5045572;28;20053;-76
2023/11/14 14:50:34;;;;;;;5.18;3.42;;;;;;;;;;5046085;28;20045;-75
2023/11/14 14:53:04;;;;;;;4.70;3.50;;;;;;;;;;5045249;28;20060;-80
2023/11/14 14:55:35;;;;;;;6.28;3.53;;;;;;;;;;5045492;28;20041;-77
2023/11/14 14:58:06;;;;;;;6.32;4.32;;;;;;;;;;5045982;28;20073;-78
2023/11/14 15:00:37;;;;;;;5.28;3.75;;;;;;;;;;5044469;28;20061;-76
2023/11/14 15:03:08;;;;;;;6.72;3.85;;;;;;;;;;5043861;28;20514;-74
2023/11/14 15:05:38;;;;;;;6.03;3.47;;;;;;;;;;5044949;28;20036;-77
2023/11/14 15:08:12;;;;;;;7.93;3.30;;;;;;;;;;5045496;28;20060;-81
2023/11/14 15:10:44;;;;;;;5.32;3.10;;;;;;;;;;5044088;28;20056;-77